TimeCDT,TemperatureF,Dew PointF,Humidity,Sea Level PressureIn,VisibilityMPH,Wind Direction,Wind SpeedMPH,Gust SpeedMPH,PrecipitationIn,Events,Conditions,WindDirDegrees,DateUTC
12:15 AM,52.9,27.3,37,30.13,10.0,SE,6.9,-,N/A,,Clear,140,2013-04-05 05:15:00
12:35 AM,51.6,27.1,39,30.13,10.0,SE,5.8,-,N/A,,Clear,140,2013-04-05 05:35:00
12:55 AM,50.0,26.6,40,30.13,10.0,ESE,4.6,-,N/A,,Clear,120,2013-04-05 05:55:00
1:15 AM,49.6,26.4,41,30.13,10.0,SSE,3.5,-,N/A,,Clear,160,2013-04-05 06:15:00
1:35 AM,50.4,26.4,39,30.12,10.0,Calm,Calm,-,N/A,,Clear,0,2013-04-05 06:35:00
1:55 AM,50.4,26.4,39,30.12,10.0,SE,5.8,-,N/A,,Clear,130,2013-04-05 06:55:00
2:15 AM,48.2,26.2,42,30.12,10.0,SSW,4.6,-,N/A,,Clear,200,2013-04-05 07:15:00
2:35 AM,47.3,25.9,43,30.12,10.0,Calm,Calm,-,N/A,,Clear,0,2013-04-05 07:35:00
2:55 AM,47.5,25.9,43,30.12,10.0,East,3.5,-,N/A,,Clear,100,2013-04-05 07:55:00
3:15 AM,46.0,26.2,46,30.12,10.0,East,3.5,-,N/A,,Clear,100,2013-04-05 08:15:00
3:35 AM,47.1,26.2,44,30.12,10.0,Calm,Calm,-,N/A,,Clear,0,2013-04-05 08:35:00
3:55 AM,46.9,27.9,48,30.12,10.0,North,3.5,-,N/A,,Clear,360,2013-04-05 08:55:00
4:15 AM,48.6,27.3,44,30.12,10.0,North,3.5,-,N/A,,Clear,360,2013-04-05 09:15:00
4:35 AM,48.4,28.6,46,30.11,10.0,NE,5.8,-,N/A,,Clear,40,2013-04-05 09:35:00
4:55 AM,47.8,30.7,52,30.11,10.0,ENE,3.5,-,N/A,,Clear,60,2013-04-05 09:55:00
5:15 AM,46.8,28.9,50,30.11,10.0,Calm,Calm,-,N/A,,Clear,0,2013-04-05 10:15:00
5:35 AM,45.7,28.4,51,30.10,10.0,Calm,Calm,-,N/A,,Clear,0,2013-04-05 10:35:00
5:55 AM,45.1,30.7,57,30.11,10.0,NW,3.5,-,N/A,,Clear,310,2013-04-05 10:55:00
6:15 AM,44.8,30.6,57,30.10,10.0,Calm,Calm,-,N/A,,Clear,0,2013-04-05 11:15:00
6:35 AM,44.8,30.6,57,30.10,10.0,Calm,Calm,-,N/A,,Clear,0,2013-04-05 11:35:00
6:55 AM,43.5,30.0,59,30.11,10.0,WNW,3.5,-,N/A,,Clear,290,2013-04-05 11:55:00
7:15 AM,44.1,31.5,61,30.11,10.0,North,4.6,-,N/A,,Clear,10,2013-04-05 12:15:00
7:35 AM,43.7,31.1,61,30.12,10.0,WNW,4.6,-,N/A,,Clear,300,2013-04-05 12:35:00
7:55 AM,44.2,31.1,60,30.11,10.0,NNE,3.5,-,N/A,,Clear,20,2013-04-05 12:55:00
8:15 AM,44.6,31.1,59,30.11,10.0,Calm,Calm,-,N/A,,Clear,0,2013-04-05 13:15:00
8:35 AM,45.9,32.4,59,30.12,10.0,Calm,Calm,-,N/A,,Clear,0,2013-04-05 13:35:00
9:15 AM,51.1,34.0,52,30.12,10.0,Calm,Calm,-,N/A,,Clear,0,2013-04-05 14:15:00
9:55 AM,55.6,34.9,46,30.13,10.0,Calm,Calm,-,N/A,,Clear,0,2013-04-05 14:55:00
10:15 AM,58.6,33.8,39,30.12,10.0,ESE,3.5,-,N/A,,Clear,110,2013-04-05 15:15:00
10:35 AM,61.3,34.0,36,30.12,10.0,Calm,Calm,-,N/A,,Clear,0,2013-04-05 15:35:00
11:15 AM,69.3,34.9,28,30.10,10.0,SE,6.9,-,N/A,,Clear,130,2013-04-05 16:15:00
11:35 AM,73.8,34.3,24,30.09,10.0,SE,8.1,-,N/A,,Clear,140,2013-04-05 16:35:00
11:55 AM,78.8,32.9,19,30.08,10.0,SE,10.4,-,N/A,,Clear,140,2013-04-05 16:55:00
12:15 PM,80.4,32.0,17,30.07,10.0,SSE,10.4,18.4,N/A,,Clear,150,2013-04-05 17:15:00
12:35 PM,82.9,32.0,16,30.06,10.0,SSE,9.2,-,N/A,,Clear,160,2013-04-05 17:35:00
12:55 PM,85.1,33.1,15,30.05,10.0,South,9.2,17.3,N/A,,Clear,170,2013-04-05 17:55:00
1:55 PM,85.6,30.9,14,30.00,10.0,South,15.0,21.9,N/A,,Clear,180,2013-04-05 18:55:00
2:35 PM,88.5,31.3,13,29.97,10.0,South,15.0,23.0,N/A,,Clear,170,2013-04-05 19:35:00
2:55 PM,88.3,31.3,13,29.96,10.0,SE,20.7,24.2,N/A,,Clear,140,2013-04-05 19:55:00
3:15 PM,88.5,31.1,13,29.95,10.0,SSE,18.4,26.5,N/A,,Clear,150,2013-04-05 20:15:00
3:55 PM,88.7,31.1,13,29.91,10.0,SE,13.8,28.8,N/A,,Clear,140,2013-04-05 20:55:00
4:15 PM,89.6,31.8,13,29.89,10.0,SE,16.1,29.9,N/A,,Clear,140,2013-04-05 21:15:00
4:55 PM,89.4,32.4,13,29.87,10.0,SSE,23.0,29.9,N/A,,Clear,150,2013-04-05 21:55:00
5:15 PM,88.0,32.0,14,29.86,10.0,SSE,17.3,25.3,N/A,,Clear,150,2013-04-05 22:15:00
5:55 PM,88.3,30.9,13,29.86,10.0,South,16.1,20.7,N/A,,Clear,170,2013-04-05 22:55:00
6:55 PM,86.4,30.2,13,29.85,10.0,SSE,15.0,-,N/A,,Clear,150,2013-04-05 23:55:00
7:15 PM,83.5,30.6,15,29.85,10.0,SE,15.0,25.3,N/A,,Clear,140,2013-04-06 00:15:00
8:35 PM,74.1,29.8,20,29.86,10.0,SE,11.5,-,N/A,,Clear,130,2013-04-06 01:35:00
8:55 PM,75.0,35.6,24,29.86,10.0,SE,12.7,-,N/A,,Clear,130,2013-04-06 01:55:00
9:35 PM,73.0,37.0,27,29.86,10.0,SE,18.4,24.2,N/A,,Clear,140,2013-04-06 02:35:00
9:55 PM,71.6,38.3,30,29.86,10.0,SSE,17.3,24.2,N/A,,Clear,150,2013-04-06 02:55:00
10:35 PM,69.8,41.0,35,29.87,10.0,SE,20.7,-,N/A,,Clear,140,2013-04-06 03:35:00
10:55 PM,68.9,41.9,37,29.88,10.0,SE,19.6,24.2,N/A,,Clear,140,2013-04-06 03:55:00
11:15 PM,68.0,41.9,39,29.87,10.0,SE,18.4,25.3,N/A,,Clear,140,2013-04-06 04:15:00
11:35 PM,66.7,41.9,40,29.88,10.0,SE,13.8,-,N/A,,Clear,130,2013-04-06 04:35:00
11:55 PM,65.3,41.7,42,29.88,10.0,SE,12.7,-,N/A,,Clear,130,2013-04-06 04:55:00